Hauptseite
METAR-TAF:

METAR-TAF

Flughäfen :

Gafsa, Tunesien

Breite: 34-25N, Länge: 008-49E, Höhe: 313 m

Beobachtung

Neuester Wetterbericht von vor 40 Minuten, um 22:00 UTC
Wind 9 kt aus Süd/Südost
Temperatur 16°C
Luftfeuchtigkeit 51%
Luftdruck 1023 hPa

METAR: DTTF 082200Z AUTO 15009KT NCD 16/06 Q1023

Zeit: 23:40 (22:40 UTC)

Prognose

Neuester Wetterbericht von vor 1 Stunde und 40 Minuten, um 21:00 UTC
Gültige Prognose vom 08 um 22 UTC bis 09 um 07 UTC
Wind 8 kt aus Süd/Südost
Sichtweite: 8000 m
Durchbrochene Bewölkung in der Höhe von 2600 ft

TAF: DTTF 082100Z 0822/0907 15008KT 8000 BKN026

Wetterbeobachtungen und Prognosen von mehr als 4000 Flughäfen (METAR und TAF Bericht).

Die verfügbaren Stationen werden durch gelbe und rote Markierungen auf der Karte dargestellt.

Führen Sie die Maus auf sie, um den Namen der Station zu sehen.

Darauf klicken, um die Beobachtung von Wetterbeobachtungen und Prognosen zu sehen.

Um die Karte zu ändern : klicken Sie auf den grünen Tasten mit einem schwarzen Kreuz Zum Vergrößern, auf den grünen Button mit einem Gedankenstrich zu verkleinern, oder auf die grünen Pfeile für benachbarte Karten.


METAR-TAF: